createdAt,value
2022-08-19T00:00:31.172Z,99777.97
2022-08-19T00:01:38.046Z,99776.44
2022-08-19T00:02:49.940Z,99780.99
2022-08-19T00:03:45.633Z,99779.46
2022-08-19T00:04:48.041Z,99773.91
2022-08-19T00:05:50.256Z,99781.32
2022-08-19T00:06:52.987Z,99787.17
2022-08-19T00:07:55.574Z,99790.94
2022-08-19T00:08:59.385Z,99790.77
2022-08-19T00:10:01.847Z,99792.77
2022-08-19T00:11:04.380Z,99793.79
2022-08-19T00:12:07.473Z,99793.41
2022-08-19T00:13:09.820Z,99794.44
2022-08-19T00:14:14.877Z,99793.41
2022-08-19T00:15:20.205Z,99786.18
2022-08-19T00:16:25.179Z,99794.09
2022-08-19T00:17:28.674Z,99790.03
2022-08-19T00:18:31.809Z,99798.31
2022-08-19T00:19:35.711Z,99793.00
2022-08-19T00:20:39.311Z,99795.91
2022-08-19T00:21:41.964Z,99804.38
2022-08-19T00:22:46.493Z,99801.52
2022-08-19T00:23:48.870Z,99805.09
2022-08-19T00:24:51.177Z,99802.87
2022-08-19T00:25:54.095Z,99803.71
2022-08-19T00:26:56.868Z,99793.18
2022-08-19T00:28:00.063Z,99796.34
2022-08-19T00:29:03.437Z,99801.50
2022-08-19T00:30:08.450Z,99797.20
2022-08-19T00:31:11.026Z,99798.77
2022-08-19T00:32:13.377Z,99798.45
2022-08-19T00:33:16.347Z,99790.97
2022-08-19T00:34:18.913Z,99795.33
2022-08-19T00:35:21.911Z,99791.24
2022-08-19T00:36:26.025Z,99791.72
2022-08-19T00:37:28.369Z,99801.41
2022-08-19T00:38:38.032Z,99794.36
2022-08-19T00:39:35.978Z,99799.75
2022-08-19T00:40:38.774Z,99799.03
2022-08-19T00:41:42.280Z,99793.70
2022-08-19T00:42:44.882Z,99798.82
2022-08-19T00:44:10.495Z,99793.44
2022-08-19T00:45:16.435Z,99787.80
2022-08-19T00:46:19.322Z,99789.61
2022-08-19T00:47:21.773Z,99796.45
2022-08-19T00:48:24.033Z,99796.29
2022-08-19T00:49:39.202Z,99792.97
2022-08-19T00:50:51.717Z,99799.58
2022-08-19T00:51:51.519Z,99804.61
2022-08-19T00:52:54.325Z,99797.06
2022-08-19T00:53:58.981Z,99798.30
2022-08-19T00:55:05.338Z,99804.24
2022-08-19T00:56:08.690Z,99804.98
2022-08-19T00:57:14.570Z,99803.78
2022-08-19T00:58:20.326Z,99800.16
2022-08-19T01:00:02.014Z,99802.34
2022-08-19T01:00:30.121Z,99802.53
2022-08-19T01:01:33.163Z,99805.69
2022-08-19T01:02:35.760Z,99813.36
2022-08-19T01:03:56.808Z,99814.78
2022-08-19T01:04:43.087Z,99812.89
2022-08-19T01:05:47.994Z,99811.23
2022-08-19T01:06:50.580Z,99815.73
2022-08-19T01:07:54.269Z,99811.64
2022-08-19T01:08:56.727Z,99811.43
2022-08-19T01:10:01.244Z,99812.88
2022-08-19T01:11:05.242Z,99807.41
2022-08-19T01:12:08.732Z,99814.33
2022-08-19T01:13:13.446Z,99807.96
2022-08-19T01:14:16.285Z,99813.44
2022-08-19T01:15:22.167Z,99816.05
2022-08-19T01:16:28.952Z,99811.53
2022-08-19T01:17:31.809Z,99815.30
2022-08-19T01:18:37.659Z,99809.40
2022-08-19T01:19:44.377Z,99811.13
2022-08-19T01:20:47.804Z,99816.81
2022-08-19T01:22:14.127Z,99816.59
2022-08-19T01:23:11.780Z,99819.29
2022-08-19T01:24:14.679Z,99819.29
2022-08-19T01:25:20.492Z,99819.36
2022-08-19T01:26:25.319Z,99808.99
2022-08-19T01:27:44.168Z,99810.91
2022-08-19T01:28:51.852Z,99811.67
2022-08-19T01:29:55.113Z,99813.31
2022-08-19T01:30:58.723Z,99808.09
2022-08-19T01:32:02.114Z,99809.40
2022-08-19T01:33:04.395Z,99809.47
2022-08-19T01:34:07.748Z,99808.84
2022-08-19T01:35:12.077Z,99818.20
2022-08-19T01:36:25.495Z,99807.78
2022-08-19T01:37:27.982Z,99815.62
2022-08-19T01:38:30.312Z,99813.92
2022-08-19T01:39:32.849Z,99811.00
2022-08-19T01:40:37.828Z,99814.12
2022-08-19T01:41:40.433Z,99802.25
2022-08-19T01:42:44.576Z,99802.25
2022-08-19T01:44:09.938Z,99791.51
2022-08-19T01:44:51.305Z,99799.73
2022-08-19T01:45:53.609Z,99799.73
2022-08-19T01:46:56.295Z,99792.05
2022-08-19T01:48:02.034Z,99794.36
2022-08-19T01:49:05.829Z,99791.75
2022-08-19T01:50:10.838Z,99788.68
2022-08-19T01:51:14.023Z,99797.05
2022-08-19T01:52:16.482Z,99796.59
2022-08-19T01:53:18.848Z,99796.96
2022-08-19T01:54:27.535Z,99789.80
2022-08-19T01:55:28.489Z,99792.88
2022-08-19T01:56:31.156Z,99796.96
2022-08-19T01:57:33.737Z,99791.37
2022-08-19T01:58:42.505Z,99790.88
2022-08-19T01:59:46.024Z,99790.88
2022-08-19T02:00:48.692Z,99796.78
2022-08-19T02:01:51.022Z,99804.52
2022-08-19T02:02:54.001Z,99795.80
2022-08-19T02:03:56.897Z,99807.45
2022-08-19T02:05:00.602Z,99801.02
2022-08-19T02:06:03.804Z,99800.19
2022-08-19T02:07:07.386Z,99801.63
2022-08-19T02:08:10.451Z,99801.78
2022-08-19T02:09:13.039Z,99797.65
2022-08-19T02:10:19.442Z,99800.25
2022-08-19T02:11:25.123Z,99800.25
2022-08-19T02:12:27.583Z,99801.85
2022-08-19T02:13:30.462Z,99794.05
2022-08-19T02:14:35.399Z,99798.56
2022-08-19T02:15:38.238Z,99800.79
2022-08-19T02:16:41.648Z,99805.86
2022-08-19T02:17:44.172Z,99802.34
2022-08-19T02:18:47.288Z,99815.56
2022-08-19T02:19:49.646Z,99810.13
2022-08-19T02:20:52.316Z,99804.83
2022-08-19T02:21:54.999Z,99804.45
2022-08-19T02:22:57.567Z,99805.42
2022-08-19T02:24:01.573Z,99798.55
2022-08-19T02:25:04.741Z,99791.26
2022-08-19T02:26:07.710Z,99786.91
2022-08-19T02:27:10.339Z,99787.97
2022-08-19T02:28:16.746Z,99786.98
2022-08-19T02:29:17.877Z,99786.30
2022-08-19T02:30:22.996Z,99787.13
2022-08-19T02:31:25.892Z,99789.36
2022-08-19T02:32:28.543Z,99798.41
2022-08-19T02:33:30.903Z,99785.51
2022-08-19T02:34:34.205Z,99798.10
2022-08-19T02:35:36.656Z,99796.42
2022-08-19T02:36:42.410Z,99794.20
2022-08-19T02:37:44.768Z,99800.86
2022-08-19T02:38:54.513Z,99798.25
2022-08-19T02:39:52.231Z,99799.50
2022-08-19T02:41:01.384Z,99796.20
2022-08-19T02:42:05.738Z,99806.39
2022-08-19T02:43:09.636Z,99779.14
2022-08-19T02:44:26.607Z,99796.32
2022-08-19T02:45:18.686Z,99804.50
2022-08-19T02:46:25.977Z,99807.12
2022-08-19T02:47:28.510Z,99803.55
2022-08-19T02:48:30.803Z,99799.28
2022-08-19T02:49:34.749Z,99755.89
2022-08-19T02:50:40.856Z,99805.48
2022-08-19T02:51:46.043Z,99808.73
2022-08-19T02:52:48.803Z,99805.34
2022-08-19T02:53:52.142Z,99810.50
2022-08-19T02:54:54.599Z,99795.31
2022-08-19T02:55:57.251Z,99804.05
2022-08-19T02:57:00.041Z,99804.05
2022-08-19T02:58:02.507Z,99803.91
2022-08-19T02:59:07.428Z,99799.16
2022-08-19T03:00:11.924Z,99808.53
2022-08-19T03:01:23.823Z,99801.09
2022-08-19T03:02:26.312Z,99799.61
2022-08-19T03:03:28.756Z,99807.75
2022-08-19T03:04:31.118Z,99800.55
2022-08-19T03:05:46.927Z,99810.50
2022-08-19T03:08:11.384Z,99791.33
2022-08-19T03:09:14.684Z,99810.50
2022-08-19T03:10:17.950Z,99802.11
2022-08-19T03:11:23.203Z,99798.30
2022-08-19T03:12:25.861Z,99804.23
2022-08-19T03:13:28.175Z,99802.22
2022-08-19T03:14:34.566Z,99800.32
2022-08-19T03:15:43.411Z,99809.19
2022-08-19T03:16:49.652Z,99808.26
2022-08-19T03:17:52.097Z,99799.52
2022-08-19T03:18:56.202Z,99802.53
2022-08-19T03:19:58.870Z,99800.68
2022-08-19T03:21:02.844Z,99795.66
2022-08-19T03:22:05.436Z,99807.63
2022-08-19T03:23:07.798Z,99805.80
2022-08-19T03:24:11.459Z,99814.58
2022-08-19T03:25:13.959Z,99800.20
2022-08-19T03:26:17.549Z,99810.55
2022-08-19T03:27:20.120Z,99807.42
2022-08-19T03:28:22.482Z,99803.89
2022-08-19T03:29:30.822Z,99803.89
2022-08-19T03:30:34.473Z,99814.88
2022-08-19T03:31:43.584Z,99821.42
2022-08-19T03:32:45.379Z,99813.12
2022-08-19T03:33:47.833Z,99815.69
2022-08-19T03:34:52.117Z,99822.92
2022-08-19T03:36:06.970Z,99819.81
2022-08-19T03:37:11.754Z,99819.81
2022-08-19T03:38:16.082Z,99826.14
2022-08-19T03:39:18.633Z,99835.45
2022-08-19T03:40:23.073Z,99832.34
2022-08-19T03:42:49.437Z,99830.36
2022-08-19T03:43:52.803Z,99831.37
2022-08-19T03:44:55.386Z,99836.05
2022-08-19T03:46:03.037Z,99835.33
2022-08-19T03:47:05.677Z,99835.45
2022-08-19T03:48:08.070Z,99836.51
2022-08-19T03:49:10.544Z,99847.33
2022-08-19T03:50:16.819Z,99836.05
2022-08-19T03:51:30.733Z,99844.23
2022-08-19T03:52:26.552Z,99838.51
2022-08-19T03:53:30.337Z,99843.02
2022-08-19T03:54:32.798Z,99838.59
2022-08-19T03:55:41.208Z,99838.80
2022-08-19T03:56:45.508Z,99838.36
2022-08-19T03:57:47.946Z,99848.73
2022-08-19T03:58:50.966Z,99847.10
2022-08-19T03:59:53.392Z,99850.71
2022-08-19T04:00:57.427Z,99850.86
2022-08-19T04:02:02.756Z,99848.83
2022-08-19T04:03:05.305Z,99857.16
2022-08-19T04:04:07.583Z,99849.48
2022-08-19T04:05:11.801Z,99853.16
2022-08-19T04:06:20.387Z,99861.06
2022-08-19T04:07:23.268Z,99869.56
2022-08-19T04:08:25.526Z,99861.36
2022-08-19T04:09:28.714Z,99860.88
2022-08-19T04:10:31.155Z,99861.81
2022-08-19T04:11:43.725Z,99864.87
2022-08-19T04:12:44.683Z,99865.84
2022-08-19T04:13:47.348Z,99861.57
2022-08-19T04:14:49.748Z,99848.89
2022-08-19T04:15:52.092Z,99848.89
2022-08-19T04:16:54.790Z,99861.60
2022-08-19T04:17:57.293Z,99861.20
2022-08-19T04:19:04.829Z,99861.42
2022-08-19T04:20:08.523Z,99863.17
2022-08-19T04:21:14.350Z,99868.25
2022-08-19T04:22:16.918Z,99858.52
2022-08-19T04:23:19.549Z,99859.05
2022-08-19T04:24:23.575Z,99865.71
2022-08-19T04:25:25.994Z,99858.68
2022-08-19T04:26:33.451Z,99863.11
2022-08-19T04:27:35.798Z,99864.44
2022-08-19T04:28:38.423Z,99861.06
2022-08-19T04:29:40.890Z,99865.39
2022-08-19T04:30:46.565Z,99863.98
2022-08-19T04:31:50.108Z,99871.21
2022-08-19T04:32:52.843Z,99872.05
2022-08-19T04:33:57.239Z,99871.21
2022-08-19T04:35:02.423Z,99871.58
2022-08-19T04:36:04.233Z,99879.34
2022-08-19T04:37:07.042Z,99865.13
2022-08-19T04:38:10.070Z,99875.56
2022-08-19T04:40:25.254Z,99861.55
2022-08-19T04:41:28.098Z,99855.91
2022-08-19T04:42:30.897Z,99819.50
2022-08-19T04:43:36.031Z,99864.55
2022-08-19T04:44:44.968Z,99862.22
2022-08-19T04:45:46.443Z,99857.63
2022-08-19T04:46:51.524Z,99861.34
2022-08-19T04:47:58.729Z,99862.70
2022-08-19T04:49:09.096Z,99862.17
2022-08-19T04:50:08.507Z,99860.61
2022-08-19T04:51:12.985Z,99864.17
2022-08-19T04:52:15.600Z,99853.50
2022-08-19T04:53:18.255Z,99852.66
2022-08-19T04:54:34.775Z,99858.95
2022-08-19T04:55:27.374Z,99852.28
2022-08-19T04:56:30.160Z,99852.45
2022-08-19T04:57:32.534Z,99853.69
2022-08-19T04:58:36.317Z,99858.45
2022-08-19T04:59:39.554Z,99849.73
2022-08-19T05:00:42.202Z,99852.80
2022-08-19T05:01:44.904Z,99863.29
2022-08-19T05:02:47.333Z,99849.16
2022-08-19T05:03:50.389Z,99853.73
2022-08-19T05:04:58.018Z,99860.59
2022-08-19T05:06:08.517Z,99853.39
2022-08-19T05:07:11.082Z,99856.81
2022-08-19T05:08:15.498Z,99860.39
2022-08-19T05:09:18.874Z,99857.25
2022-08-19T05:10:22.371Z,99863.01
2022-08-19T05:11:28.351Z,99858.92
2022-08-19T05:12:30.779Z,99862.64
2022-08-19T05:13:33.414Z,99857.56
2022-08-19T05:14:35.823Z,99859.45
2022-08-19T05:15:38.177Z,99867.33
2022-08-19T05:16:41.070Z,99869.38
2022-08-19T05:17:43.322Z,99862.96
2022-08-19T05:18:46.475Z,99875.45
2022-08-19T05:19:48.753Z,99870.73
2022-08-19T05:20:51.403Z,99874.95
2022-08-19T05:21:54.688Z,99876.65
2022-08-19T05:22:57.474Z,99873.11
2022-08-19T05:24:00.448Z,99872.27
2022-08-19T05:25:13.037Z,99870.06
2022-08-19T05:26:11.898Z,99873.77
2022-08-19T05:27:14.909Z,99875.12
2022-08-19T05:28:17.672Z,99873.80
2022-08-19T05:29:22.464Z,99867.02
2022-08-19T05:30:33.379Z,99866.84
2022-08-19T05:31:30.632Z,99870.38
2022-08-19T05:32:34.766Z,99866.02
2022-08-19T05:33:37.476Z,99877.98
2022-08-19T05:34:39.782Z,99884.89
2022-08-19T05:35:41.999Z,99885.39
2022-08-19T05:36:45.881Z,99889.30
2022-08-19T05:37:48.272Z,99888.05
2022-08-19T05:38:53.183Z,99879.78
2022-08-19T05:39:55.798Z,99879.98
2022-08-19T05:40:58.644Z,99887.05
2022-08-19T05:42:03.750Z,99893.11
2022-08-19T05:43:07.853Z,99888.00
2022-08-19T05:44:10.595Z,99888.30
2022-08-19T05:45:13.091Z,99876.89
2022-08-19T05:46:19.138Z,99887.91
2022-08-19T05:47:23.614Z,99879.36
2022-08-19T05:48:26.433Z,99883.05
2022-08-19T05:49:29.695Z,99882.52
2022-08-19T05:50:32.168Z,99877.19
2022-08-19T05:51:36.464Z,99884.68
2022-08-19T05:52:39.205Z,99886.70
2022-08-19T05:53:43.653Z,99879.53
2022-08-19T05:54:46.976Z,99874.64
2022-08-19T05:55:50.714Z,99879.56
2022-08-19T05:56:54.033Z,99880.47
2022-08-19T05:57:56.459Z,99885.13
2022-08-19T05:58:59.321Z,99887.42
2022-08-19T06:00:04.203Z,99880.68
2022-08-19T06:01:12.178Z,99870.34
2022-08-19T06:02:14.607Z,99878.06
2022-08-19T06:03:17.332Z,99877.76
2022-08-19T06:04:20.596Z,99878.47
2022-08-19T06:05:22.866Z,99884.33
2022-08-19T06:06:25.463Z,99884.33
2022-08-19T06:07:28.290Z,99881.92
2022-08-19T06:08:33.682Z,99890.97
2022-08-19T06:09:35.550Z,99891.91
2022-08-19T06:10:37.951Z,99891.28
2022-08-19T06:11:43.824Z,99891.52
2022-08-19T06:12:46.275Z,99896.51
2022-08-19T06:13:52.293Z,99895.52
2022-08-19T06:15:01.169Z,99897.85
2022-08-19T06:16:01.317Z,99898.58
2022-08-19T06:17:07.070Z,99898.39
2022-08-19T06:18:08.318Z,99903.10
2022-08-19T06:19:16.611Z,99901.14
2022-08-19T06:20:39.768Z,99899.75
2022-08-19T06:21:29.077Z,99905.58
2022-08-19T06:22:31.747Z,99902.30
2022-08-19T06:23:35.194Z,99902.13
2022-08-19T06:24:39.162Z,99903.34
2022-08-19T06:25:43.581Z,99898.18
2022-08-19T06:28:14.083Z,99900.39
2022-08-19T06:28:59.530Z,99897.39
2022-08-19T06:30:04.923Z,99884.98
2022-08-19T06:31:10.401Z,99889.34
2022-08-19T06:32:14.851Z,99894.61
2022-08-19T06:33:17.346Z,99890.28
2022-08-19T06:34:26.407Z,99883.42
2022-08-19T06:35:28.957Z,99877.57
2022-08-19T06:36:34.984Z,99879.05
2022-08-19T06:37:43.689Z,99887.75
2022-08-19T06:38:45.298Z,99893.34
2022-08-19T06:39:49.899Z,99891.91
2022-08-19T06:41:02.444Z,99885.52
2022-08-19T06:42:07.921Z,99885.05
2022-08-19T06:43:12.286Z,99885.77
2022-08-19T06:44:18.564Z,99886.41
2022-08-19T06:45:25.166Z,99881.08
2022-08-19T06:46:29.701Z,99886.70
2022-08-19T06:47:35.204Z,99882.00
2022-08-19T06:48:39.506Z,99876.21
2022-08-19T06:49:43.074Z,99877.95
2022-08-19T06:50:47.477Z,99874.94
2022-08-19T06:51:50.776Z,99878.38
2022-08-19T06:52:54.521Z,99879.28
2022-08-19T06:53:58.024Z,99874.73
2022-08-19T06:55:01.484Z,99866.85
2022-08-19T06:56:05.930Z,99876.88
2022-08-19T06:57:11.987Z,99873.59
2022-08-19T06:58:14.530Z,99871.39
2022-08-19T06:59:21.620Z,99875.12
2022-08-19T07:00:25.526Z,99873.14
2022-08-19T07:01:28.683Z,99876.05
2022-08-19T07:02:31.463Z,99880.88
2022-08-19T07:03:35.624Z,99881.84
2022-08-19T07:04:42.185Z,99874.55
2022-08-19T07:05:45.492Z,99880.23
2022-08-19T07:06:55.321Z,99882.22
2022-08-19T07:07:54.094Z,99883.94
2022-08-19T07:08:58.993Z,99887.05
2022-08-19T07:10:03.704Z,99889.43
2022-08-19T07:11:11.287Z,99884.07
2022-08-19T07:12:14.466Z,99888.66
2022-08-19T07:13:17.012Z,99888.47
2022-08-19T07:14:25.594Z,99889.38
2022-08-19T07:15:28.030Z,99894.16
2022-08-19T07:16:31.949Z,99902.20
2022-08-19T07:17:34.839Z,99891.26
2022-08-19T07:18:38.366Z,99895.56
2022-08-19T07:19:41.936Z,99894.56
2022-08-19T07:20:47.020Z,99896.52
2022-08-19T07:21:51.700Z,99897.53
2022-08-19T07:22:55.412Z,99894.73
2022-08-19T07:24:02.914Z,99897.09
2022-08-19T07:25:08.081Z,99888.95
2022-08-19T07:26:15.179Z,99897.36
2022-08-19T07:27:17.713Z,99896.04
2022-08-19T07:28:24.391Z,99894.54
2022-08-19T07:29:25.728Z,99895.07
2022-08-19T07:30:31.573Z,99886.84
2022-08-19T07:31:37.124Z,99893.28
2022-08-19T07:32:40.550Z,99894.62
2022-08-19T07:33:42.963Z,99898.59
2022-08-19T07:34:46.450Z,99900.81
2022-08-19T07:35:50.405Z,99905.67
2022-08-19T07:36:54.260Z,99897.20
2022-08-19T07:37:56.727Z,99898.84
2022-08-19T07:39:01.902Z,99894.14
2022-08-19T07:40:08.122Z,99894.17
2022-08-19T07:41:13.589Z,99883.88
2022-08-19T07:42:16.699Z,99891.64
2022-08-19T07:43:18.975Z,99894.73
2022-08-19T07:44:22.665Z,99900.92
2022-08-19T07:45:25.266Z,99893.62
2022-08-19T07:46:33.677Z,99893.55
2022-08-19T07:47:47.915Z,99897.84
2022-08-19T07:48:43.259Z,99893.14
2022-08-19T07:49:45.654Z,99885.09
2022-08-19T07:50:48.004Z,99884.18
2022-08-19T07:53:03.535Z,99888.33
2022-08-19T07:54:05.919Z,99874.77
2022-08-19T07:55:42.086Z,99877.80
2022-08-19T07:56:20.249Z,99883.94
2022-08-19T07:57:25.013Z,99889.77
2022-08-19T07:58:27.315Z,99890.89
2022-08-19T07:59:30.173Z,99890.89
2022-08-19T08:00:34.710Z,99903.90
2022-08-19T08:01:41.839Z,99896.98
2022-08-19T08:02:42.467Z,99901.16
2022-08-19T08:03:45.525Z,99904.27
2022-08-19T08:04:49.638Z,99899.52
2022-08-19T08:05:51.830Z,99909.89
2022-08-19T08:06:54.666Z,99910.08
2022-08-19T08:07:57.654Z,99907.46
2022-08-19T08:09:01.161Z,99907.97
2022-08-19T08:10:06.421Z,99907.45
2022-08-19T08:11:11.077Z,99906.79
2022-08-19T08:12:33.617Z,99901.97
2022-08-19T08:13:25.505Z,99897.76
2022-08-19T08:14:44.702Z,99907.33
2022-08-19T08:15:49.123Z,99891.91
2022-08-19T08:16:57.633Z,99898.89
2022-08-19T08:18:01.757Z,99904.42
2022-08-19T08:19:18.211Z,99897.67
2022-08-19T08:20:14.459Z,99897.77
2022-08-19T08:21:17.505Z,99893.93
2022-08-19T08:22:21.508Z,99881.77
2022-08-19T08:23:24.259Z,99894.17
2022-08-19T08:24:29.926Z,99901.01
2022-08-19T08:25:35.315Z,99896.64
2022-08-19T08:26:38.509Z,99886.22
2022-08-19T08:27:45.196Z,99887.36
2022-08-19T08:28:49.463Z,99891.73
2022-08-19T08:29:51.922Z,99896.30
2022-08-19T08:30:54.172Z,99889.60
2022-08-19T08:31:59.618Z,99892.47
2022-08-19T08:33:02.651Z,99886.30
2022-08-19T08:34:05.241Z,99905.83
2022-08-19T08:35:10.372Z,99899.52
2022-08-19T08:36:13.418Z,99899.77
2022-08-19T08:37:16.254Z,99899.87
2022-08-19T08:38:18.964Z,99902.02
2022-08-19T08:39:21.760Z,99903.74
2022-08-19T08:40:31.084Z,99902.80
2022-08-19T08:41:43.864Z,99909.09
2022-08-19T08:42:52.555Z,99909.80
2022-08-19T08:43:56.479Z,99904.89
2022-08-19T08:45:01.960Z,99906.63
2022-08-19T08:46:07.990Z,99909.50
2022-08-19T08:47:15.793Z,99907.84
2022-08-19T08:48:23.950Z,99910.77
2022-08-19T08:49:36.024Z,99917.25
2022-08-19T08:50:43.482Z,99917.80
2022-08-19T08:51:59.261Z,99913.70
2022-08-19T08:52:59.279Z,99915.48
2022-08-19T08:54:05.390Z,99917.34
2022-08-19T08:56:21.209Z,99921.48
2022-08-19T08:57:45.491Z,99927.14
2022-08-19T08:59:00.299Z,99921.92
2022-08-19T09:00:06.482Z,99922.05
2022-08-19T09:01:11.948Z,99916.09
2022-08-19T09:02:14.335Z,99928.47
2022-08-19T09:03:23.440Z,99918.41
2022-08-19T09:04:25.842Z,99915.36
2022-08-19T09:06:57.683Z,99926.59
2022-08-19T09:08:06.791Z,99926.35
2022-08-19T09:09:19.107Z,99919.20
2022-08-19T09:10:33.214Z,99911.67
2022-08-19T09:11:56.787Z,99916.14
2022-08-19T09:13:19.934Z,99920.01
2022-08-19T09:14:53.520Z,99918.94
2022-08-19T09:17:13.371Z,99918.41
2022-08-19T09:18:19.436Z,99914.15
2022-08-19T09:19:22.539Z,99914.17
2022-08-19T09:20:26.110Z,99915.65
2022-08-19T09:21:30.587Z,99910.33
2022-08-19T09:22:33.833Z,99906.83
2022-08-19T09:23:37.420Z,99902.81
2022-08-19T09:24:39.762Z,99911.83
2022-08-19T09:25:42.110Z,99917.06
2022-08-19T09:26:48.208Z,99906.77
2022-08-19T09:27:51.148Z,99918.75
2022-08-19T09:28:53.992Z,99927.17
2022-08-19T09:29:56.267Z,99911.70
2022-08-19T09:30:58.752Z,99916.11
2022-08-19T09:32:01.417Z,99920.29
2022-08-19T09:33:03.709Z,99921.02
2022-08-19T09:34:06.761Z,99917.94
2022-08-19T09:35:10.157Z,99921.85
2022-08-19T09:36:31.087Z,99914.20
2022-08-19T09:37:21.899Z,99919.47
2022-08-19T09:38:26.151Z,99915.66
2022-08-19T09:39:35.971Z,99917.33
2022-08-19T09:40:38.239Z,99914.77
2022-08-19T09:41:39.572Z,99923.62
2022-08-19T09:42:50.178Z,99921.41
2022-08-19T09:43:53.106Z,99917.16
2022-08-19T09:44:55.722Z,99933.92
2022-08-19T09:45:58.278Z,99933.45
2022-08-19T09:47:01.290Z,99939.39
2022-08-19T09:48:04.316Z,99949.73
2022-08-19T09:49:07.001Z,99947.53
2022-08-19T09:50:12.337Z,99942.61
2022-08-19T09:51:24.937Z,99949.05
2022-08-19T09:52:32.649Z,99944.24
2022-08-19T09:53:31.456Z,99932.52
2022-08-19T09:54:35.365Z,99943.67
2022-08-19T09:55:44.023Z,99946.28
2022-08-19T09:56:47.247Z,99936.06
2022-08-19T09:57:49.687Z,99947.53
2022-08-19T09:58:52.543Z,99946.53
2022-08-19T09:59:55.262Z,99950.80
2022-08-19T10:00:59.469Z,99952.31
2022-08-19T10:02:03.904Z,99952.20
2022-08-19T10:03:06.246Z,99961.55
2022-08-19T10:04:09.546Z,99959.05
2022-08-19T10:05:13.857Z,99965.87
2022-08-19T10:06:18.719Z,99953.10
2022-08-19T10:07:22.926Z,99958.62
2022-08-19T10:08:30.687Z,99950.08
2022-08-19T10:09:34.447Z,99952.73
2022-08-19T10:10:37.139Z,99953.25
2022-08-19T10:11:52.563Z,99953.25
2022-08-19T10:12:49.196Z,99952.11
2022-08-19T10:13:51.909Z,99955.77
2022-08-19T10:14:54.237Z,99956.91
2022-08-19T10:16:06.227Z,99947.44
2022-08-19T10:17:19.131Z,99946.79
2022-08-19T10:18:12.739Z,99949.03
2022-08-19T10:19:15.011Z,99955.56
2022-08-19T10:20:20.893Z,99943.16
2022-08-19T10:21:29.355Z,99945.57
2022-08-19T10:22:34.095Z,99941.84
2022-08-19T10:23:38.666Z,99945.25
2022-08-19T10:24:41.131Z,99946.89
2022-08-19T10:25:44.491Z,99945.61
2022-08-19T10:26:47.593Z,99945.44
2022-08-19T10:27:49.821Z,99942.47
2022-08-19T10:28:54.770Z,99936.56
2022-08-19T10:29:57.174Z,99935.75
2022-08-19T10:31:06.296Z,99939.80
2022-08-19T10:32:10.042Z,99887.29
2022-08-19T10:33:12.830Z,99937.19
2022-08-19T10:34:27.563Z,99937.37
2022-08-19T10:35:21.887Z,99946.13
2022-08-19T10:36:28.508Z,99942.63
2022-08-19T10:37:32.756Z,99938.98
2022-08-19T10:38:36.341Z,99942.23
2022-08-19T10:39:43.342Z,99939.28
2022-08-19T10:40:43.732Z,99945.73
2022-08-19T10:41:46.024Z,99943.83
2022-08-19T10:42:48.330Z,99947.17
2022-08-19T10:43:52.800Z,99940.97
2022-08-19T10:44:55.241Z,99950.28
2022-08-19T10:45:57.468Z,99954.11
2022-08-19T10:47:00.117Z,99945.95
2022-08-19T10:48:03.689Z,99947.72
2022-08-19T10:49:06.375Z,99957.78
2022-08-19T10:50:09.019Z,99953.09
2022-08-19T10:51:22.652Z,99945.89
2022-08-19T10:52:20.268Z,99948.23
2022-08-19T10:53:23.187Z,99950.80
2022-08-19T10:54:31.474Z,99954.23
2022-08-19T10:55:30.717Z,99958.83
2022-08-19T10:56:34.441Z,99955.29
2022-08-19T10:58:41.174Z,99964.91
2022-08-19T10:59:45.339Z,99963.08
2022-08-19T11:00:58.881Z,99964.77
2022-08-19T11:02:06.305Z,99973.05
2022-08-19T11:03:11.825Z,99969.95
2022-08-19T11:04:14.863Z,99967.14
2022-08-19T11:05:17.594Z,99962.57
2022-08-19T11:06:21.353Z,99962.44
2022-08-19T11:07:23.864Z,99971.22
2022-08-19T11:08:26.168Z,99968.76
2022-08-19T11:09:34.005Z,99973.68
2022-08-19T11:10:33.200Z,99971.86
2022-08-19T11:11:38.454Z,99974.19
2022-08-19T11:12:41.043Z,99980.16
2022-08-19T11:13:44.288Z,99976.96
2022-08-19T11:14:46.876Z,99970.20
2022-08-19T11:15:57.981Z,99980.54
2022-08-19T11:17:01.138Z,99981.64
2022-08-19T11:18:04.112Z,99984.55
2022-08-19T11:19:10.048Z,99976.50
2022-08-19T11:20:14.982Z,99985.78
2022-08-19T11:21:21.095Z,99988.66
2022-08-19T11:22:24.881Z,99983.10
2022-08-19T11:23:29.043Z,99974.00
2022-08-19T11:24:32.347Z,99986.23
2022-08-19T11:25:34.869Z,99984.98
2022-08-19T11:26:40.615Z,99978.92
2022-08-19T11:27:43.305Z,99977.16
2022-08-19T11:28:46.057Z,99977.23
2022-08-19T11:29:48.641Z,99974.19
2022-08-19T11:30:51.473Z,99974.57
2022-08-19T11:31:54.536Z,99972.53
2022-08-19T11:32:58.776Z,99977.63
2022-08-19T11:34:03.942Z,99974.66
2022-08-19T11:35:06.907Z,99972.59
2022-08-19T11:36:11.636Z,99969.23
2022-08-19T11:37:16.065Z,99977.67
2022-08-19T11:38:18.364Z,99976.20
2022-08-19T11:39:22.315Z,99972.66
2022-08-19T11:40:25.074Z,99973.41
2022-08-19T11:41:27.912Z,99975.41
2022-08-19T11:42:30.793Z,99969.68
2022-08-19T11:43:37.327Z,99978.08
2022-08-19T11:44:38.553Z,99972.64
2022-08-19T11:45:42.821Z,99973.95
2022-08-19T11:46:47.160Z,99972.36
2022-08-19T11:47:49.806Z,99970.26
2022-08-19T11:48:52.112Z,99976.91
2022-08-19T11:49:54.518Z,99915.47
2022-08-19T11:50:56.958Z,99970.70
2022-08-19T11:51:59.929Z,99969.95
2022-08-19T11:53:02.185Z,99980.07
2022-08-19T11:54:06.145Z,99981.19
2022-08-19T11:55:09.189Z,99982.00
2022-08-19T11:56:12.542Z,99983.45
2022-08-19T11:57:14.770Z,99980.70
2022-08-19T11:58:19.177Z,99979.78
2022-08-19T11:59:23.633Z,99994.37
2022-08-19T12:00:26.795Z,99981.19
2022-08-19T12:01:29.534Z,99986.05
2022-08-19T12:02:31.901Z,99985.78
2022-08-19T12:03:34.771Z,99982.45
2022-08-19T12:04:37.574Z,99994.09
2022-08-19T12:05:42.937Z,99991.19
2022-08-19T12:06:49.200Z,99994.36
2022-08-19T12:07:51.520Z,99998.03
2022-08-19T12:08:53.985Z,99993.66
2022-08-19T12:09:56.594Z,99995.12
2022-08-19T12:11:01.922Z,99997.45
2022-08-19T12:12:04.290Z,100000.54
2022-08-19T12:13:10.581Z,100001.28
2022-08-19T12:14:14.663Z,100008.12
2022-08-19T12:15:17.422Z,100001.09
2022-08-19T12:16:23.702Z,100003.53
2022-08-19T12:17:27.221Z,100014.14
2022-08-19T12:18:30.010Z,100008.44
2022-08-19T12:19:32.576Z,100013.00
2022-08-19T12:20:37.951Z,100005.89
2022-08-19T12:21:43.004Z,100010.86
2022-08-19T12:22:45.307Z,100008.16
2022-08-19T12:23:51.685Z,100012.42
2022-08-19T12:24:53.505Z,100002.16
2022-08-19T12:25:57.550Z,100014.05
2022-08-19T12:27:00.914Z,100005.45
2022-08-19T12:28:05.110Z,100018.61
2022-08-19T12:29:07.707Z,100008.39
2022-08-19T12:30:14.198Z,100009.18
2022-08-19T12:31:16.908Z,100002.06
2022-08-19T12:32:19.158Z,99999.03
2022-08-19T12:33:24.104Z,100005.03
2022-08-19T12:34:26.563Z,100010.73
2022-08-19T12:35:28.910Z,100009.25
2022-08-19T12:36:31.777Z,100007.66
2022-08-19T12:37:37.179Z,100006.07
2022-08-19T12:38:43.933Z,100014.23
2022-08-19T12:39:47.938Z,99953.41
2022-08-19T12:40:58.336Z,100005.27
2022-08-19T12:41:58.409Z,100004.15
2022-08-19T12:43:01.462Z,100013.09
2022-08-19T12:44:05.769Z,100001.35
2022-08-19T12:45:12.000Z,100006.59
2022-08-19T12:46:15.212Z,100004.36